Club Med II — FNIR — position and weather

sailwx.info

Track history (hours):
 
Tides and Currents Weather Stations Pressure Air Temp Water Temp Dewpoint Dewpoint Depression Visibility Wind Speed Wind Dir Waves Ship Positions

Club Med II

Operator: V.Ships Leisure S.A.M

Last reported at 2019-Sep-21 08:49 UTC. Time now 2019-Sep-21 11:31 UTC.
Position N 42°34' E 008°46'.

Length 187 m; draft 5.3 m.

Type: Ship. MMSI: 227194000.

Date/timePositionNaut miles runAvg speedWind from/ knotsBaromVisibWave heightAir tempDewpointWater temp
2019-Sep-21 08:49N 42°34' E 008°46'0 0.0
2019-Sep-21 08:10N 42°34' E 008°46'0 0.0
2019-Sep-21 06:52N 42°34' E 008°46'0 0.1
2019-Sep-21 06:04N 42°34' E 008°46'0 0.3
2019-Sep-21 05:58N 42°34' E 008°46'3 5.0
2019-Sep-21 05:26N 42°36' E 008°45'3 7.3
2019-Sep-21 05:00N 42°39' E 008°42'4 7.4
2019-Sep-21 04:28N 42°42' E 008°38'4 7.6
2019-Sep-21 04:00N 42°44' E 008°35'4 7.8
2019-Sep-21 03:30N 42°47' E 008°31'4 7.7
2019-Sep-21 02:59N 42°50' E 008°27'5 8.0
2019-Sep-21 02:18N 42°54' E 008°22'2 7.8
2019-Sep-21 02:00N 42°55' E 008°20'4 7.6
2019-Sep-21 01:26N 42°58' E 008°16'3 7.6
2019-Sep-21 00:59N 43°01' E 008°12'7 7.9
2019-Sep-21 00:06N 43°06' E 008°06'1 8.1
2019-Sep-20 23:59N 43°06' E 008°05'4 8.0
2019-Sep-20 23:30N 43°09' E 008°01'4 8.1
2019-Sep-20 23:00N 43°12' E 007°57'4 7.5
2019-Sep-20 22:30N 43°14' E 007°53'4 7.1
2019-Sep-20 22:00N 43°16' E 007°49'4 7.2
2019-Sep-20 21:30N 43°19' E 007°46'4 7.3
2019-Sep-20 21:00N 43°21' E 007°42'4 7.4
2019-Sep-20 20:30N 43°24' E 007°38'4 7.0
2019-Sep-20 20:00N 43°26' E 007°34'3 6.1
2019-Sep-20 19:30N 43°27' E 007°31'3 6.0
2019-Sep-20 19:00N 43°29' E 007°28'3 6.7
2019-Sep-20 18:30N 43°32' E 007°25'4 7.3
2019-Sep-20 18:00N 43°35' E 007°22'4 8.4
2019-Sep-20 17:30N 43°38' E 007°19'3 6.6
2019-Sep-20 17:00N 43°42' E 007°17'0 0.1
2019-Sep-20 16:29N 43°42' E 007°17'0 0.0
2019-Sep-20 15:56N 43°42' E 007°17'0 0.0
2019-Sep-20 15:29N 43°42' E 007°17'0 0.0
2019-Sep-20 14:59N 43°42' E 007°17'0 0.0
2019-Sep-20 14:29N 43°42' E 007°17'0 0.0
2019-Sep-20 13:59N 43°42' E 007°17'0 0.0
2019-Sep-20 13:26N 43°42' E 007°17'0 0.0
2019-Sep-20 12:59N 43°42' E 007°17'0 0.0
2019-Sep-20 12:29N 43°42' E 007°17'0 0.0
2019-Sep-20 11:59N 43°42' E 007°17'0 0.0
2019-Sep-20 11:29N 43°42' E 007°17'0 0.0
2019-Sep-20 10:59N 43°42' E 007°17'0 0.0
2019-Sep-20 10:29N 43°42' E 007°17'0 0.0
2019-Sep-20 09:59N 43°42' E 007°17'0 0.0
2019-Sep-20 09:29N 43°42' E 007°17'0 0.0
2019-Sep-20 08:59N 43°42' E 007°17'0 0.0
2019-Sep-20 08:29N 43°42' E 007°17'0 0.0
2019-Sep-20 07:59N 43°42' E 007°17'0 0.0
2019-Sep-20 07:29N 43°42' E 007°17'0 0.0
2019-Sep-20 06:59N 43°42' E 007°17'0 0.0
2019-Sep-20 06:29N 43°42' E 007°17'0 0.0
2019-Sep-20 05:59N 43°42' E 007°17'0 0.0
2019-Sep-20 05:29N 43°42' E 007°17'0 0.0
2019-Sep-20 04:59N 43°42' E 007°17'0 0.3
2019-Sep-20 04:30N 43°42' E 007°17'4 8.3
2019-Sep-20 04:00N 43°37' E 007°17'612.7
2019-Sep-20 03:30N 43°31' E 007°15'612.3
2019-Sep-20 03:00N 43°27' E 007°09'612.6
2019-Sep-20 02:30N 43°24' E 007°01'712.9
2019-Sep-20 02:00N 43°20' E 006°54'812.7
2019-Sep-20 01:23N 43°18' E 006°44'4 0.4
2019-Sep-19 14:17N 43°17' E 006°38'0 0.0
2019-Sep-19 13:38N 43°17' E 006°38'2 0.4
2019-Sep-19 07:22N 43°17' E 006°41'610.9
2019-Sep-19 06:51N 43°20' E 006°48'411.1
2019-Sep-19 06:30N 43°21' E 006°53'611.3
2019-Sep-19 06:00N 43°24' E 006°60'611.4
2019-Sep-19 05:30N 43°26' E 007°07'611.5
2019-Sep-19 05:00N 43°28' E 007°14'611.2
2019-Sep-19 04:31N 43°31' E 007°21'611.7
2019-Sep-19 04:00N 43°33' E 007°28'611.7
2019-Sep-19 03:30N 43°36' E 007°36'611.6
2019-Sep-19 03:00N 43°38' E 007°43'611.3
2019-Sep-19 02:31N 43°40' E 007°50'611.3
2019-Sep-19 02:01N 43°42' E 007°57'611.2
2019-Sep-19 01:30N 43°45' E 008°05'611.2
2019-Sep-19 01:00N 43°47' E 008°11'612.2
2019-Sep-19 00:30N 43°50' E 008°19'611.7
2019-Sep-19 00:00N 43°53' E 008°26'611.6
2019-Sep-18 23:30N 43°56' E 008°32'611.3
2019-Sep-18 23:00N 43°60' E 008°39'611.2
2019-Sep-18 22:30N 44°03' E 008°45'611.2
2019-Sep-18 22:01N 44°06' E 008°51'611.3
2019-Sep-18 21:30N 44°09' E 008°59'611.3
2019-Sep-18 21:01N 44°11' E 009°06'611.6
2019-Sep-18 20:31N 44°14' E 009°13'5 9.5
2019-Sep-18 19:59N 44°19' E 009°14'0 0.0
2019-Sep-18 19:29N 44°19' E 009°14'0 0.1
2019-Sep-18 18:59N 44°19' E 009°14'0 0.0
2019-Sep-18 18:29N 44°19' E 009°14'0 0.0
2019-Sep-18 17:59N 44°19' E 009°14'0 0.0
2019-Sep-18 17:26N 44°19' E 009°14'0 0.0
2019-Sep-18 16:53N 44°19' E 009°14'0 0.0
2019-Sep-18 16:29N 44°19' E 009°14'0 0.0
2019-Sep-18 15:59N 44°19' E 009°14'0 0.0
2019-Sep-18 15:29N 44°19' E 009°14'0 0.0
2019-Sep-18 14:59N 44°19' E 009°14'0 0.0
2019-Sep-18 14:29N 44°19' E 009°14'0 0.0
2019-Sep-18 13:59N 44°19' E 009°14'0 0.0
2019-Sep-18 13:29N 44°19' E 009°14'0 0.0
2019-Sep-18 12:56N 44°19' E 009°14'0 0.0
2019-Sep-18 12:23N 44°19' E 009°14'0 0.0
2019-Sep-18 11:53N 44°19' E 009°14'0 0.0
2019-Sep-18 11:29N 44°19' E 009°14'0 0.0
2019-Sep-18 10:59N 44°19' E 009°14'0 0.0
2019-Sep-18 10:14N 44°19' E 009°14'0 0.1
2019-Sep-18 09:56N 44°19' E 009°14'0 0.1
2019-Sep-18 09:02N 44°19' E 009°14'0 0.0
2019-Sep-18 08:56N 44°19' E 009°14'0 0.0
2019-Sep-18 08:29N 44°19' E 009°14'0 0.0
2019-Sep-18 07:56N 44°19' E 009°14'0 0.1
2019-Sep-18 07:14N 44°19' E 009°14'0 0.1
2019-Sep-18 06:56N 44°19' E 009°14'2 3.5
2019-Sep-18 06:24N 44°17' E 009°16'3 6.7
2019-Sep-18 06:00N 44°15' E 009°16'4 7.3
2019-Sep-18 05:30N 44°13' E 009°11'4 7.2
2019-Sep-18 05:00N 44°11' E 009°07'3 6.6
2019-Sep-18 04:30N 44°10' E 009°03'3 6.5
2019-Sep-18 04:00N 44°08' E 008°59'4 8.2
2019-Sep-18 03:30N 44°06' E 008°54'4 8.2
2019-Sep-18 03:00N 44°04' E 008°49'4 7.9
2019-Sep-18 02:30N 44°02' E 008°44'4 8.1
2019-Sep-18 02:00N 43°60' E 008°39'4 8.1
2019-Sep-18 01:30N 43°58' E 008°34'4 8.1
2019-Sep-18 00:59N 43°56' E 008°29'4 8.0
2019-Sep-18 00:27N 43°54' E 008°24'5 7.4
2019-Sep-17 23:50N 43°51' E 008°19'3 7.2
2019-Sep-17 23:28N 43°50' E 008°16'3 7.4
2019-Sep-17 23:00N 43°48' E 008°11'4 7.8
2019-Sep-17 22:30N 43°46' E 008°07'4 7.8
2019-Sep-17 21:59N 43°44' E 008°02'4 7.6
2019-Sep-17 21:30N 43°44' E 007°57'4 7.6
2019-Sep-17 21:00N 43°43' E 007°52'4 7.3
2019-Sep-17 20:30N 43°42' E 007°47'4 7.5
2019-Sep-17 20:00N 43°42' E 007°42'4 7.8
2019-Sep-17 19:30N 43°41' E 007°36'4 7.8
2019-Sep-17 19:00N 43°40' E 007°31'4 7.8
2019-Sep-17 18:30N 43°39' E 007°26'4 8.5
2019-Sep-17 18:00N 43°38' E 007°20'4 7.9
2019-Sep-17 17:30N 43°42' E 007°17'0 0.1
2019-Sep-17 17:00N 43°42' E 007°17'0 0.0
2019-Sep-17 16:30N 43°42' E 007°17'0 0.0
2019-Sep-17 16:00N 43°42' E 007°17'0 0.0
2019-Sep-17 15:30N 43°42' E 007°17'0 0.0
2019-Sep-17 15:00N 43°42' E 007°17'0 0.0
2019-Sep-17 14:30N 43°42' E 007°17'0 0.0
2019-Sep-17 13:57N 43°42' E 007°17'0 0.0
2019-Sep-17 13:30N 43°42' E 007°17'0 0.0
2019-Sep-17 13:00N 43°42' E 007°17'0 0.0
2019-Sep-17 12:30N 43°42' E 007°17'0 0.0
2019-Sep-17 12:00N 43°42' E 007°17'0 0.0
2019-Sep-17 11:30N 43°42' E 007°17'0 0.0
2019-Sep-17 11:00N 43°42' E 007°17'0 0.0
2019-Sep-17 10:30N 43°42' E 007°17'0 0.0
2019-Sep-17 10:00N 43°42' E 007°17'0 0.0
2019-Sep-17 09:30N 43°42' E 007°17'0 0.0
2019-Sep-17 09:00N 43°42' E 007°17'0 0.0
2019-Sep-17 08:30N 43°42' E 007°17'0 0.0
2019-Sep-17 08:00N 43°42' E 007°17'0 0.0
2019-Sep-17 07:30N 43°42' E 007°17'0 0.0
2019-Sep-17 07:00N 43°42' E 007°17'0 0.0
2019-Sep-17 06:30N 43°42' E 007°17'0 0.0
2019-Sep-17 06:00N 43°42' E 007°17'0 0.0
2019-Sep-17 05:30N 43°42' E 007°17'0 0.0
2019-Sep-17 05:00N 43°42' E 007°17'0 0.6
2019-Sep-17 04:30N 43°41' E 007°17'4 7.7
2019-Sep-17 04:01N 43°38' E 007°17'612.7
2019-Sep-17 03:31N 43°31' E 007°15'612.7
2019-Sep-17 03:01N 43°27' E 007°09'713.2
2019-Sep-17 02:31N 43°23' E 007°01'713.4
2019-Sep-17 02:00N 43°19' E 006°54'612.2
2019-Sep-17 01:30N 43°18' E 006°46'6 1.9
2019-Sep-16 22:31N 43°17' E 006°38'0 0.0
2019-Sep-16 21:28N 43°17' E 006°38'0 0.0
2019-Sep-16 20:01N 43°17' E 006°38'0 0.1
2019-Sep-16 19:58N 43°17' E 006°38'0 0.0
2019-Sep-16 19:28N 43°17' E 006°38'0 0.0
2019-Sep-16 18:55N 43°17' E 006°38'0 0.1
2019-Sep-16 18:28N 43°17' E 006°38'0 0.0
2019-Sep-16 17:58N 43°17' E 006°38'0 0.0
2019-Sep-16 17:28N 43°17' E 006°38'0 0.0
2019-Sep-16 16:58N 43°17' E 006°38'0 0.0
2019-Sep-16 16:25N 43°17' E 006°38'0 0.1
2019-Sep-16 15:58N 43°17' E 006°38'0 0.0
2019-Sep-16 15:28N 43°17' E 006°38'0 0.1
2019-Sep-16 14:58N 43°17' E 006°38'0 0.0
2019-Sep-16 14:28N 43°17' E 006°38'0 0.0
2019-Sep-16 13:58N 43°17' E 006°38'0 0.0
2019-Sep-16 13:22N 43°17' E 006°38'0 0.0
2019-Sep-16 12:58N 43°17' E 006°38'0 0.0
2019-Sep-16 12:28N 43°17' E 006°38'0 0.0
2019-Sep-16 11:55N 43°17' E 006°38'0 0.0
2019-Sep-16 11:28N 43°17' E 006°38'0 0.0
2019-Sep-16 10:52N 43°17' E 006°38'0 0.0
2019-Sep-16 08:34N 43°17' E 006°38'0 0.0
2019-Sep-16 08:22N 43°17' E 006°38'0 0.0
2019-Sep-16 07:43N 43°17' E 006°38'2 6.5
2019-Sep-16 07:22N 43°18' E 006°41'512.3
2019-Sep-16 06:58N 43°20' E 006°47'511.7
2019-Sep-16 06:30N 43°22' E 006°54'611.6
2019-Sep-16 06:00N 43°24' E 007°01'611.4
2019-Sep-16 05:30N 43°27' E 007°08'611.4
2019-Sep-16 05:00N 43°29' E 007°16'611.6
2019-Sep-16 04:30N 43°32' E 007°23'611.8
2019-Sep-16 04:00N 43°34' E 007°30'611.8
2019-Sep-16 03:30N 43°36' E 007°38'611.5
2019-Sep-16 03:00N 43°38' E 007°45'611.6
2019-Sep-16 02:30N 43°41' E 007°52'612.0
2019-Sep-16 02:00N 43°43' E 007°60'612.3
2019-Sep-16 01:30N 43°46' E 008°08'612.1
2019-Sep-16 01:00N 43°48' E 008°15'612.3
2019-Sep-16 00:30N 43°52' E 008°22'612.6
2019-Sep-16 00:00N 43°56' E 008°29'612.3
2019-Sep-15 23:30N 43°59' E 008°37'612.2
2019-Sep-15 23:00N 44°01' E 008°44'612.4
2019-Sep-15 22:30N 44°04' E 008°52'612.2
2019-Sep-15 22:00N 44°07' E 008°59'612.1
2019-Sep-15 21:30N 44°10' E 009°07'612.4
2019-Sep-15 21:00N 44°14' E 009°14'4 8.7
2019-Sep-15 20:30N 44°18' E 009°14'1 1.5
2019-Sep-15 20:00N 44°19' E 009°14'0 0.0
2019-Sep-15 19:28N 44°19' E 009°14'0 0.0
2019-Sep-15 18:55N 44°19' E 009°14'0 0.0
2019-Sep-15 18:28N 44°19' E 009°14'0 0.0
2019-Sep-15 17:55N 44°19' E 009°14'0 0.0
2019-Sep-15 17:28N 44°19' E 009°14'0 0.1
2019-Sep-15 16:58N 44°19' E 009°14'0 0.0
2019-Sep-15 16:22N 44°19' E 009°14'0 0.0
2019-Sep-15 15:58N 44°19' E 009°14'0 0.0
2019-Sep-15 15:28N 44°19' E 009°14'0 0.0
2019-Sep-15 14:58N 44°19' E 009°14'0 0.0
2019-Sep-15 14:28N 44°19' E 009°14'0 0.0
2019-Sep-15 13:52N 44°19' E 009°14'0 0.0
2019-Sep-15 13:28N 44°19' E 009°14'0 0.0
2019-Sep-15 12:58N 44°19' E 009°14'0 0.1
2019-Sep-15 12:28N 44°19' E 009°14'0 0.0
2019-Sep-15 11:58N 44°19' E 009°14'0 0.0
2019-Sep-15 11:22N 44°19' E 009°14'0 0.0
2019-Sep-15 10:58N 44°19' E 009°14'0 0.0
2019-Sep-15 10:28N 44°19' E 009°14'0 0.0
2019-Sep-15 09:55N 44°19' E 009°14'0 0.0
2019-Sep-15 09:22N 44°19' E 009°14'0 0.0
2019-Sep-15 08:34N 44°19' E 009°14'0 0.0
2019-Sep-15 08:25N 44°19' E 009°14'0 0.0
2019-Sep-15 07:40N 44°19' E 009°14'0 0.0
2019-Sep-15 07:22N 44°19' E 009°14'0 0.1
2019-Sep-15 06:47N 44°19' E 009°14'1 3.7
2019-Sep-15 06:29N 44°18' E 009°15'3 5.9
2019-Sep-15 06:00N 44°15' E 009°16'3 6.1
2019-Sep-15 05:30N 44°13' E 009°13'3 6.0
2019-Sep-15 05:00N 44°12' E 009°09'3 6.0
2019-Sep-15 04:30N 44°10' E 009°05'4 8.2
2019-Sep-15 04:00N 44°08' E 009°01'4 8.3
2019-Sep-15 03:30N 44°06' E 008°55'4 8.3
2019-Sep-15 03:00N 44°04' E 008°50'4 8.3
2019-Sep-15 02:30N 44°02' E 008°45'4 8.0
2019-Sep-15 02:00N 44°00' E 008°41'4 7.7
2019-Sep-15 01:30N 43°58' E 008°36'4 7.5
2019-Sep-15 01:00N 43°56' E 008°31'4 7.8
2019-Sep-15 00:30N 43°54' E 008°27'4 7.4
2019-Sep-15 00:00N 43°52' E 008°23'4 7.9
2019-Sep-14 23:30N 43°50' E 008°18'4 8.0
2019-Sep-14 23:00N 43°48' E 008°13'4 7.7
2019-Sep-14 22:30N 43°46' E 008°08'4 7.6
2019-Sep-14 22:00N 43°45' E 008°04'3 6.9
2019-Sep-14 21:30N 43°43' E 007°59'4 7.3
2019-Sep-14 21:00N 43°43' E 007°54'4 7.9
2019-Sep-14 20:30N 43°42' E 007°49'4 7.8
2019-Sep-14 20:00N 43°42' E 007°43'4 7.7
2019-Sep-14 19:30N 43°41' E 007°38'4 7.5
2019-Sep-14 19:00N 43°40' E 007°33'4 7.2
2019-Sep-14 18:30N 43°40' E 007°28'4 7.5
2019-Sep-14 18:00N 43°40' E 007°23'4 7.2
2019-Sep-14 17:30N 43°40' E 007°18'2 4.1
2019-Sep-14 17:00N 43°42' E 007°17'0 0.0
2019-Sep-14 16:30N 43°42' E 007°17'0 0.0
2019-Sep-14 15:57N 43°42' E 007°17'0 0.0
2019-Sep-14 15:30N 43°42' E 007°17'0 0.0
2019-Sep-14 15:00N 43°42' E 007°17'0 0.0
2019-Sep-14 14:30N 43°42' E 007°17'0 0.0
2019-Sep-14 14:00N 43°42' E 007°17'0 0.0
2019-Sep-14 13:27N 43°42' E 007°17'0 0.0
2019-Sep-14 13:00N 43°42' E 007°17'0 0.0
2019-Sep-14 12:30N 43°42' E 007°17'0 0.0
2019-Sep-14 12:00N 43°42' E 007°17'0 0.0
2019-Sep-14 11:30N 43°42' E 007°17'0 0.0
2019-Sep-14 11:00N 43°42' E 007°17'0 0.0
2019-Sep-14 10:30N 43°42' E 007°17'0 0.0
2019-Sep-14 10:00N 43°42' E 007°17'0 0.0
2019-Sep-14 09:30N 43°42' E 007°17'0 0.0
2019-Sep-14 09:00N 43°42' E 007°17'0 0.0
2019-Sep-14 08:30N 43°42' E 007°17'0 0.0
2019-Sep-14 08:00N 43°42' E 007°17'0 0.0
2019-Sep-14 07:30N 43°42' E 007°17'0 0.0
2019-Sep-14 07:00N 43°42' E 007°17'0 0.0
2019-Sep-14 06:30N 43°42' E 007°17'0 0.0
2019-Sep-14 06:00N 43°42' E 007°17'0 0.0
2019-Sep-14 05:30N 43°42' E 007°17'0 0.0
2019-Sep-14 05:00N 43°42' E 007°17'0 0.0
2019-Sep-14 04:30N 43°42' E 007°17'0 0.0
2019-Sep-14 04:00N 43°42' E 007°17'0 0.0
2019-Sep-14 03:30N 43°42' E 007°17'0 0.0
2019-Sep-14 03:00N 43°42' E 007°17'0 0.0
2019-Sep-14 02:30N 43°42' E 007°17'0 0.0
2019-Sep-14 02:00N 43°42' E 007°17'0 0.0
2019-Sep-14 01:30N 43°42' E 007°17'0 0.0
2019-Sep-14 01:00N 43°42' E 007°17'0 0.0
2019-Sep-14 00:30N 43°42' E 007°17'0 0.0
2019-Sep-14 00:00N 43°42' E 007°17'0 0.0
2019-Sep-13 23:30N 43°42' E 007°17'0 0.0
2019-Sep-13 23:00N 43°42' E 007°17'0 0.0
2019-Sep-13 22:30N 43°42' E 007°17'0 0.0
2019-Sep-13 22:00N 43°42' E 007°17'0 0.0
2019-Sep-13 21:30N 43°42' E 007°17'0 0.0
2019-Sep-13 21:00N 43°42' E 007°17'0 0.0
2019-Sep-13 20:30N 43°42' E 007°17'0 0.0
2019-Sep-13 20:00N 43°42' E 007°17'0 0.0
2019-Sep-13 19:30N 43°42' E 007°17'0 0.0
2019-Sep-13 19:00N 43°42' E 007°17'0 0.0
2019-Sep-13 18:30N 43°42' E 007°17'0 0.0
2019-Sep-13 18:00N 43°42' E 007°17'0 0.0
2019-Sep-13 17:30N 43°42' E 007°17'0 0.0
2019-Sep-13 17:00N 43°42' E 007°17'0 0.0
2019-Sep-13 16:30N 43°42' E 007°17'0 0.0
2019-Sep-13 16:00N 43°42' E 007°17'0 0.0
2019-Sep-13 15:30N 43°42' E 007°17'0 0.0
2019-Sep-13 15:00N 43°42' E 007°17'0 0.0
2019-Sep-13 14:30N 43°42' E 007°17'0 0.0
2019-Sep-13 14:00N 43°42' E 007°17'0 0.0
2019-Sep-13 13:30N 43°42' E 007°17'0 0.0
2019-Sep-13 13:00N 43°42' E 007°17'0 0.0
2019-Sep-13 12:30N 43°42' E 007°17'0 0.0
2019-Sep-13 12:00N 43°42' E 007°17'0 0.0
2019-Sep-13 11:30N 43°42' E 007°17'0 0.0
2019-Sep-13 11:00N 43°42' E 007°17'0 0.0
2019-Sep-13 10:30N 43°42' E 007°17'0 0.0
2019-Sep-13 10:00N 43°42' E 007°17'0 0.0
2019-Sep-13 09:30N 43°42' E 007°17'0 0.0
2019-Sep-13 09:00N 43°42' E 007°17'0 0.0
2019-Sep-13 08:30N 43°42' E 007°17'0 0.0
2019-Sep-13 08:00N 43°42' E 007°17'0 0.0
2019-Sep-13 07:30N 43°42' E 007°17'0 0.0
2019-Sep-13 07:00N 43°42' E 007°17'0 0.0
2019-Sep-13 06:30N 43°42' E 007°17'0 0.0
2019-Sep-13 06:00N 43°42' E 007°17'0 0.0
2019-Sep-13 05:30N 43°42' E 007°17'0 0.0
2019-Sep-13 05:00N 43°42' E 007°17'0 0.3
2019-Sep-13 04:30N 43°42' E 007°17'3 6.6
2019-Sep-13 04:00N 43°39' E 007°19'5 9.1
2019-Sep-13 03:30N 43°35' E 007°23'5 9.2
2019-Sep-13 03:00N 43°32' E 007°27'5 9.1
2019-Sep-13 02:30N 43°29' E 007°32'10 9.7
2019-Sep-13 01:30N 43°22' E 007°41'5 9.7
2019-Sep-13 01:00N 43°18' E 007°46'5 9.8
2019-Sep-13 00:30N 43°15' E 007°51'5 9.8
2019-Sep-13 00:00N 43°12' E 007°56'5 9.7
2019-Sep-12 23:30N 43°09' E 008°01'5 9.8
2019-Sep-12 23:00N 43°05' E 008°06'5 9.9
2019-Sep-12 22:30N 43°01' E 008°10'5 9.6
2019-Sep-12 22:00N 42°58' E 008°15'5 9.6
2019-Sep-12 21:30N 42°54' E 008°19'5 9.5
2019-Sep-12 21:00N 42°50' E 008°23'5 9.4
2019-Sep-12 20:30N 42°46' E 008°26'5 9.4
2019-Sep-12 20:00N 42°42' E 008°28'5 9.1
2019-Sep-12 19:30N 42°37' E 008°30'4 7.4
2019-Sep-12 19:00N 42°36' E 008°35'5 9.1
2019-Sep-12 18:30N 42°37' E 008°41'4 7.9
2019-Sep-12 18:00N 42°35' E 008°46'1 2.2
2019-Sep-12 17:30N 42°34' E 008°46'0 0.0
2019-Sep-12 16:59N 42°34' E 008°46'0 0.0
2019-Sep-12 16:29N 42°34' E 008°46'0 0.1
2019-Sep-12 15:59N 42°34' E 008°46'0 0.1
2019-Sep-12 15:29N 42°34' E 008°46'0 0.1
2019-Sep-12 14:59N 42°34' E 008°46'0 0.1
2019-Sep-12 14:29N 42°34' E 008°46'0 0.1
2019-Sep-12 13:59N 42°34' E 008°46'0 0.0
2019-Sep-12 13:29N 42°34' E 008°46'0 0.0
2019-Sep-12 12:59N 42°34' E 008°46'0 0.0
2019-Sep-12 12:29N 42°34' E 008°46'0 0.0
2019-Sep-12 11:59N 42°34' E 008°46'0 0.0
2019-Sep-12 11:29N 42°34' E 008°46'0 0.0
2019-Sep-12 10:59N 42°34' E 008°46'0 0.0
2019-Sep-12 10:26N 42°34' E 008°46'0 0.0
2019-Sep-12 09:56N 42°34' E 008°46'0 0.0
2019-Sep-12 09:24N 42°34' E 008°46'0 0.0
2019-Sep-12 08:55N 42°34' E 008°46'0 0.0
2019-Sep-12 08:28N 42°34' E 008°46'0 0.1
2019-Sep-12 07:58N 42°34' E 008°46'0 0.0
2019-Sep-12 07:28N 42°34' E 008°46'0 0.0
2019-Sep-12 06:52N 42°34' E 008°46'0 0.0
2019-Sep-12 06:25N 42°34' E 008°46'0 0.1
2019-Sep-12 06:00N 42°34' E 008°46'2 4.9
2019-Sep-12 05:30N 42°36' E 008°46'4 7.6
2019-Sep-12 05:00N 42°40' E 008°46'4 7.7
2019-Sep-12 04:30N 42°44' E 008°48'4 7.9
2019-Sep-12 04:00N 42°48' E 008°50'4 7.3
2019-Sep-12 03:30N 42°51' E 008°51'4 7.4
2019-Sep-12 03:00N 42°55' E 008°51'4 8.8
2019-Sep-12 02:30N 42°59' E 008°53'4 8.7
2019-Sep-12 02:00N 43°03' E 008°54'4 8.7
2019-Sep-12 01:30N 43°08' E 008°55'4 9.0
2019-Sep-12 01:00N 43°12' E 008°57'4 9.0
2019-Sep-12 00:30N 43°16' E 008°59'5 9.0
2019-Sep-12 00:00N 43°21' E 009°00'4 8.8
2019-Sep-11 23:30N 43°25' E 009°01'4 8.5
2019-Sep-11 23:00N 43°29' E 009°02'4 8.8
2019-Sep-11 22:30N 43°33' E 009°04'4 8.4
2019-Sep-11 22:00N 43°38' E 009°05'4 8.0
2019-Sep-11 21:30N 43°41' E 009°06'4 8.2
2019-Sep-11 21:00N 43°45' E 009°07'4 8.5
2019-Sep-11 20:30N 43°50' E 009°09'4 8.4
2019-Sep-11 20:00N 43°54' E 009°10'4 8.3
2019-Sep-11 19:30N 43°58' E 009°12'4 8.3
2019-Sep-11 19:00N 44°02' E 009°13'4 8.2
2019-Sep-11 18:30N 44°06' E 009°14'4 8.0
2019-Sep-11 18:00N 44°10' E 009°15'4 7.9
2019-Sep-11 17:30N 44°14' E 009°15'5 9.8
2019-Sep-11 17:00N 44°18' E 009°14'0 0.2
2019-Sep-11 16:29N 44°18' E 009°14'0 0.0
2019-Sep-11 15:59N 44°18' E 009°14'0 0.0
2019-Sep-11 15:29N 44°18' E 009°14'0 0.0
2019-Sep-11 14:59N 44°18' E 009°14'0 0.0
2019-Sep-11 14:26N 44°18' E 009°14'0 0.0
2019-Sep-11 13:59N 44°18' E 009°14'0 0.1
2019-Sep-11 13:23N 44°18' E 009°14'0 0.0
2019-Sep-11 12:59N 44°18' E 009°14'0 0.0
2019-Sep-11 12:26N 44°18' E 009°14'0 0.0
2019-Sep-11 11:59N 44°18' E 009°14'0 0.0
2019-Sep-11 11:29N 44°18' E 009°14'0 0.0
2019-Sep-11 10:56N 44°18' E 009°14'0 0.0
2019-Sep-11 10:29N 44°18' E 009°14'0 0.0
2019-Sep-11 09:59N 44°18' E 009°14'0 0.0
2019-Sep-11 09:29N 44°18' E 009°14'0 0.0
2019-Sep-11 08:59N 44°18' E 009°14'  
Track history (hours):
 
Tides and Currents Weather Stations Pressure Air Temp Water Temp Dewpoint Dewpoint Depression Visibility Wind Speed Wind Dir Waves Ship Positions

Club Med II

Operator: V.Ships Leisure S.A.M

Last reported at 2019-Sep-21 08:49 UTC. Time now 2019-Sep-21 11:31 UTC.
Position N 42°34' E 008°46'.

Length 187 m; draft 5.3 m.

Type: Ship. MMSI: 227194000.

Date/timePositionNaut miles runAvg speedWind from/ knotsBaromVisibWave heightAir tempDewpointWater temp
2019-Sep-21 08:49N 42°34' E 008°46'0 0.0
2019-Sep-21 08:10N 42°34' E 008°46'0 0.0
2019-Sep-21 06:52N 42°34' E 008°46'0 0.1
2019-Sep-21 06:04N 42°34' E 008°46'0 0.3
2019-Sep-21 05:58N 42°34' E 008°46'3 5.0
2019-Sep-21 05:26N 42°36' E 008°45'3 7.3
2019-Sep-21 05:00N 42°39' E 008°42'4 7.4
2019-Sep-21 04:28N 42°42' E 008°38'4 7.6
2019-Sep-21 04:00N 42°44' E 008°35'4 7.8
2019-Sep-21 03:30N 42°47' E 008°31'4 7.7
2019-Sep-21 02:59N 42°50' E 008°27'5 8.0
2019-Sep-21 02:18N 42°54' E 008°22'2 7.8
2019-Sep-21 02:00N 42°55' E 008°20'4 7.6
2019-Sep-21 01:26N 42°58' E 008°16'3 7.6
2019-Sep-21 00:59N 43°01' E 008°12'7 7.9
2019-Sep-21 00:06N 43°06' E 008°06'1 8.1
2019-Sep-20 23:59N 43°06' E 008°05'4 8.0
2019-Sep-20 23:30N 43°09' E 008°01'4 8.1
2019-Sep-20 23:00N 43°12' E 007°57'4 7.5
2019-Sep-20 22:30N 43°14' E 007°53'4 7.1
2019-Sep-20 22:00N 43°16' E 007°49'4 7.2
2019-Sep-20 21:30N 43°19' E 007°46'4 7.3
2019-Sep-20 21:00N 43°21' E 007°42'4 7.4
2019-Sep-20 20:30N 43°24' E 007°38'4 7.0
2019-Sep-20 20:00N 43°26' E 007°34'3 6.1
2019-Sep-20 19:30N 43°27' E 007°31'3 6.0
2019-Sep-20 19:00N 43°29' E 007°28'3 6.7
2019-Sep-20 18:30N 43°32' E 007°25'4 7.3
2019-Sep-20 18:00N 43°35' E 007°22'4 8.4
2019-Sep-20 17:30N 43°38' E 007°19'3 6.6
2019-Sep-20 17:00N 43°42' E 007°17'0 0.1
2019-Sep-20 16:29N 43°42' E 007°17'0 0.0
2019-Sep-20 15:56N 43°42' E 007°17'0 0.0
2019-Sep-20 15:29N 43°42' E 007°17'0 0.0
2019-Sep-20 14:59N 43°42' E 007°17'0 0.0
2019-Sep-20 14:29N 43°42' E 007°17'0 0.0
2019-Sep-20 13:59N 43°42' E 007°17'0 0.0
2019-Sep-20 13:26N 43°42' E 007°17'0 0.0
2019-Sep-20 12:59N 43°42' E 007°17'0 0.0
2019-Sep-20 12:29N 43°42' E 007°17'0 0.0
2019-Sep-20 11:59N 43°42' E 007°17'0 0.0
2019-Sep-20 11:29N 43°42' E 007°17'0 0.0
2019-Sep-20 10:59N 43°42' E 007°17'0 0.0
2019-Sep-20 10:29N 43°42' E 007°17'0 0.0
2019-Sep-20 09:59N 43°42' E 007°17'0 0.0
2019-Sep-20 09:29N 43°42' E 007°17'0 0.0
2019-Sep-20 08:59N 43°42' E 007°17'0 0.0
2019-Sep-20 08:29N 43°42' E 007°17'0 0.0
2019-Sep-20 07:59N 43°42' E 007°17'0 0.0
2019-Sep-20 07:29N 43°42' E 007°17'0 0.0
2019-Sep-20 06:59N 43°42' E 007°17'0 0.0
2019-Sep-20 06:29N 43°42' E 007°17'0 0.0
2019-Sep-20 05:59N 43°42' E 007°17'0 0.0
2019-Sep-20 05:29N 43°42' E 007°17'0 0.0
2019-Sep-20 04:59N 43°42' E 007°17'0 0.3
2019-Sep-20 04:30N 43°42' E 007°17'4 8.3
2019-Sep-20 04:00N 43°37' E 007°17'612.7
2019-Sep-20 03:30N 43°31' E 007°15'612.3
2019-Sep-20 03:00N 43°27' E 007°09'612.6
2019-Sep-20 02:30N 43°24' E 007°01'712.9
2019-Sep-20 02:00N 43°20' E 006°54'812.7
2019-Sep-20 01:23N 43°18' E 006°44'4 0.4
2019-Sep-19 14:17N 43°17' E 006°38'0 0.0
2019-Sep-19 13:38N 43°17' E 006°38'2 0.4
2019-Sep-19 07:22N 43°17' E 006°41'610.9
2019-Sep-19 06:51N 43°20' E 006°48'411.1
2019-Sep-19 06:30N 43°21' E 006°53'611.3
2019-Sep-19 06:00N 43°24' E 006°60'611.4
2019-Sep-19 05:30N 43°26' E 007°07'611.5
2019-Sep-19 05:00N 43°28' E 007°14'611.2
2019-Sep-19 04:31N 43°31' E 007°21'611.7
2019-Sep-19 04:00N 43°33' E 007°28'611.7
2019-Sep-19 03:30N 43°36' E 007°36'611.6
2019-Sep-19 03:00N 43°38' E 007°43'611.3
2019-Sep-19 02:31N 43°40' E 007°50'611.3
2019-Sep-19 02:01N 43°42' E 007°57'611.2
2019-Sep-19 01:30N 43°45' E 008°05'611.2
2019-Sep-19 01:00N 43°47' E 008°11'612.2
2019-Sep-19 00:30N 43°50' E 008°19'611.7
2019-Sep-19 00:00N 43°53' E 008°26'611.6
2019-Sep-18 23:30N 43°56' E 008°32'611.3
2019-Sep-18 23:00N 43°60' E 008°39'611.2
2019-Sep-18 22:30N 44°03' E 008°45'611.2
2019-Sep-18 22:01N 44°06' E 008°51'611.3
2019-Sep-18 21:30N 44°09' E 008°59'611.3
2019-Sep-18 21:01N 44°11' E 009°06'611.6
2019-Sep-18 20:31N 44°14' E 009°13'5 9.5
2019-Sep-18 19:59N 44°19' E 009°14'0 0.0
2019-Sep-18 19:29N 44°19' E 009°14'0 0.1
2019-Sep-18 18:59N 44°19' E 009°14'0 0.0
2019-Sep-18 18:29N 44°19' E 009°14'0 0.0
2019-Sep-18 17:59N 44°19' E 009°14'0 0.0
2019-Sep-18 17:26N 44°19' E 009°14'0 0.0
2019-Sep-18 16:53N 44°19' E 009°14'0 0.0
2019-Sep-18 16:29N 44°19' E 009°14'0 0.0
2019-Sep-18 15:59N 44°19' E 009°14'0 0.0
2019-Sep-18 15:29N 44°19' E 009°14'0 0.0
2019-Sep-18 14:59N 44°19' E 009°14'0 0.0
2019-Sep-18 14:29N 44°19' E 009°14'0 0.0
2019-Sep-18 13:59N 44°19' E 009°14'0 0.0
2019-Sep-18 13:29N 44°19' E 009°14'0 0.0
2019-Sep-18 12:56N 44°19' E 009°14'0 0.0
2019-Sep-18 12:23N 44°19' E 009°14'0 0.0
2019-Sep-18 11:53N 44°19' E 009°14'0 0.0
2019-Sep-18 11:29N 44°19' E 009°14'0 0.0
2019-Sep-18 10:59N 44°19' E 009°14'0 0.0
2019-Sep-18 10:14N 44°19' E 009°14'0 0.1
2019-Sep-18 09:56N 44°19' E 009°14'0 0.1
2019-Sep-18 09:02N 44°19' E 009°14'0 0.0
2019-Sep-18 08:56N 44°19' E 009°14'0 0.0
2019-Sep-18 08:29N 44°19' E 009°14'0 0.0
2019-Sep-18 07:56N 44°19' E 009°14'0 0.1
2019-Sep-18 07:14N 44°19' E 009°14'0 0.1
2019-Sep-18 06:56N 44°19' E 009°14'2 3.5
2019-Sep-18 06:24N 44°17' E 009°16'3 6.7
2019-Sep-18 06:00N 44°15' E 009°16'4 7.3
2019-Sep-18 05:30N 44°13' E 009°11'4 7.2
2019-Sep-18 05:00N 44°11' E 009°07'3 6.6
2019-Sep-18 04:30N 44°10' E 009°03'3 6.5
2019-Sep-18 04:00N 44°08' E 008°59'4 8.2
2019-Sep-18 03:30N 44°06' E 008°54'4 8.2
2019-Sep-18 03:00N 44°04' E 008°49'4 7.9
2019-Sep-18 02:30N 44°02' E 008°44'4 8.1
2019-Sep-18 02:00N 43°60' E 008°39'4 8.1
2019-Sep-18 01:30N 43°58' E 008°34'4 8.1
2019-Sep-18 00:59N 43°56' E 008°29'4 8.0
2019-Sep-18 00:27N 43°54' E 008°24'5 7.4
2019-Sep-17 23:50N 43°51' E 008°19'3 7.2
2019-Sep-17 23:28N 43°50' E 008°16'3 7.4
2019-Sep-17 23:00N 43°48' E 008°11'4 7.8
2019-Sep-17 22:30N 43°46' E 008°07'4 7.8
2019-Sep-17 21:59N 43°44' E 008°02'4 7.6
2019-Sep-17 21:30N 43°44' E 007°57'4 7.6
2019-Sep-17 21:00N 43°43' E 007°52'4 7.3
2019-Sep-17 20:30N 43°42' E 007°47'4 7.5
2019-Sep-17 20:00N 43°42' E 007°42'4 7.8
2019-Sep-17 19:30N 43°41' E 007°36'4 7.8
2019-Sep-17 19:00N 43°40' E 007°31'4 7.8
2019-Sep-17 18:30N 43°39' E 007°26'4 8.5
2019-Sep-17 18:00N 43°38' E 007°20'4 7.9
2019-Sep-17 17:30N 43°42' E 007°17'0 0.1
2019-Sep-17 17:00N 43°42' E 007°17'0 0.0
2019-Sep-17 16:30N 43°42' E 007°17'0 0.0
2019-Sep-17 16:00N 43°42' E 007°17'0 0.0
2019-Sep-17 15:30N 43°42' E 007°17'0 0.0
2019-Sep-17 15:00N 43°42' E 007°17'0 0.0
2019-Sep-17 14:30N 43°42' E 007°17'0 0.0
2019-Sep-17 13:57N 43°42' E 007°17'0 0.0
2019-Sep-17 13:30N 43°42' E 007°17'0 0.0
2019-Sep-17 13:00N 43°42' E 007°17'0 0.0
2019-Sep-17 12:30N 43°42' E 007°17'0 0.0
2019-Sep-17 12:00N 43°42' E 007°17'0 0.0
2019-Sep-17 11:30N 43°42' E 007°17'0 0.0
2019-Sep-17 11:00N 43°42' E 007°17'0 0.0
2019-Sep-17 10:30N 43°42' E 007°17'0 0.0
2019-Sep-17 10:00N 43°42' E 007°17'0 0.0
2019-Sep-17 09:30N 43°42' E 007°17'0 0.0
2019-Sep-17 09:00N 43°42' E 007°17'0 0.0
2019-Sep-17 08:30N 43°42' E 007°17'0 0.0
2019-Sep-17 08:00N 43°42' E 007°17'0 0.0
2019-Sep-17 07:30N 43°42' E 007°17'0 0.0
2019-Sep-17 07:00N 43°42' E 007°17'0 0.0
2019-Sep-17 06:30N 43°42' E 007°17'0 0.0
2019-Sep-17 06:00N 43°42' E 007°17'0 0.0
2019-Sep-17 05:30N 43°42' E 007°17'0 0.0
2019-Sep-17 05:00N 43°42' E 007°17'0 0.6
2019-Sep-17 04:30N 43°41' E 007°17'4 7.7
2019-Sep-17 04:01N 43°38' E 007°17'612.7
2019-Sep-17 03:31N 43°31' E 007°15'612.7
2019-Sep-17 03:01N 43°27' E 007°09'713.2
2019-Sep-17 02:31N 43°23' E 007°01'713.4
2019-Sep-17 02:00N 43°19' E 006°54'612.2
2019-Sep-17 01:30N 43°18' E 006°46'6 1.9
2019-Sep-16 22:31N 43°17' E 006°38'0 0.0
2019-Sep-16 21:28N 43°17' E 006°38'0 0.0
2019-Sep-16 20:01N 43°17' E 006°38'0 0.1
2019-Sep-16 19:58N 43°17' E 006°38'0 0.0
2019-Sep-16 19:28N 43°17' E 006°38'0 0.0
2019-Sep-16 18:55N 43°17' E 006°38'0 0.1
2019-Sep-16 18:28N 43°17' E 006°38'0 0.0
2019-Sep-16 17:58N 43°17' E 006°38'0 0.0
2019-Sep-16 17:28N 43°17' E 006°38'0 0.0
2019-Sep-16 16:58N 43°17' E 006°38'0 0.0
2019-Sep-16 16:25N 43°17' E 006°38'0 0.1
2019-Sep-16 15:58N 43°17' E 006°38'0 0.0
2019-Sep-16 15:28N 43°17' E 006°38'0 0.1
2019-Sep-16 14:58N 43°17' E 006°38'0 0.0
2019-Sep-16 14:28N 43°17' E 006°38'0 0.0
2019-Sep-16 13:58N 43°17' E 006°38'0 0.0
2019-Sep-16 13:22N 43°17' E 006°38'0 0.0
2019-Sep-16 12:58N 43°17' E 006°38'0 0.0
2019-Sep-16 12:28N 43°17' E 006°38'0 0.0
2019-Sep-16 11:55N 43°17' E 006°38'0 0.0
2019-Sep-16 11:28N 43°17' E 006°38'0 0.0
2019-Sep-16 10:52N 43°17' E 006°38'0 0.0
2019-Sep-16 08:34N 43°17' E 006°38'0 0.0
2019-Sep-16 08:22N 43°17' E 006°38'0 0.0
2019-Sep-16 07:43N 43°17' E 006°38'2 6.5
2019-Sep-16 07:22N 43°18' E 006°41'512.3
2019-Sep-16 06:58N 43°20' E 006°47'511.7
2019-Sep-16 06:30N 43°22' E 006°54'611.6
2019-Sep-16 06:00N 43°24' E 007°01'611.4
2019-Sep-16 05:30N 43°27' E 007°08'611.4
2019-Sep-16 05:00N 43°29' E 007°16'611.6
2019-Sep-16 04:30N 43°32' E 007°23'611.8
2019-Sep-16 04:00N 43°34' E 007°30'611.8
2019-Sep-16 03:30N 43°36' E 007°38'611.5
2019-Sep-16 03:00N 43°38' E 007°45'611.6
2019-Sep-16 02:30N 43°41' E 007°52'612.0
2019-Sep-16 02:00N 43°43' E 007°60'612.3
2019-Sep-16 01:30N 43°46' E 008°08'612.1
2019-Sep-16 01:00N 43°48' E 008°15'612.3
2019-Sep-16 00:30N 43°52' E 008°22'612.6
2019-Sep-16 00:00N 43°56' E 008°29'612.3
2019-Sep-15 23:30N 43°59' E 008°37'612.2
2019-Sep-15 23:00N 44°01' E 008°44'612.4
2019-Sep-15 22:30N 44°04' E 008°52'612.2
2019-Sep-15 22:00N 44°07' E 008°59'612.1
2019-Sep-15 21:30N 44°10' E 009°07'612.4
2019-Sep-15 21:00N 44°14' E 009°14'4 8.7
2019-Sep-15 20:30N 44°18' E 009°14'1 1.5
2019-Sep-15 20:00N 44°19' E 009°14'0 0.0
2019-Sep-15 19:28N 44°19' E 009°14'0 0.0
2019-Sep-15 18:55N 44°19' E 009°14'0 0.0
2019-Sep-15 18:28N 44°19' E 009°14'0 0.0
2019-Sep-15 17:55N 44°19' E 009°14'0 0.0
2019-Sep-15 17:28N 44°19' E 009°14'0 0.1
2019-Sep-15 16:58N 44°19' E 009°14'0 0.0
2019-Sep-15 16:22N 44°19' E 009°14'0 0.0
2019-Sep-15 15:58N 44°19' E 009°14'0 0.0
2019-Sep-15 15:28N 44°19' E 009°14'0 0.0
2019-Sep-15 14:58N 44°19' E 009°14'0 0.0
2019-Sep-15 14:28N 44°19' E 009°14'0 0.0
2019-Sep-15 13:52N 44°19' E 009°14'0 0.0
2019-Sep-15 13:28N 44°19' E 009°14'0 0.0
2019-Sep-15 12:58N 44°19' E 009°14'0 0.1
2019-Sep-15 12:28N 44°19' E 009°14'0 0.0
2019-Sep-15 11:58N 44°19' E 009°14'0 0.0
2019-Sep-15 11:22N 44°19' E 009°14'0 0.0
2019-Sep-15 10:58N 44°19' E 009°14'0 0.0
2019-Sep-15 10:28N 44°19' E 009°14'0 0.0
2019-Sep-15 09:55N 44°19' E 009°14'0 0.0
2019-Sep-15 09:22N 44°19' E 009°14'0 0.0
2019-Sep-15 08:34N 44°19' E 009°14'0 0.0
2019-Sep-15 08:25N 44°19' E 009°14'0 0.0
2019-Sep-15 07:40N 44°19' E 009°14'0 0.0
2019-Sep-15 07:22N 44°19' E 009°14'0 0.1
2019-Sep-15 06:47N 44°19' E 009°14'1 3.7
2019-Sep-15 06:29N 44°18' E 009°15'3 5.9
2019-Sep-15 06:00N 44°15' E 009°16'3 6.1
2019-Sep-15 05:30N 44°13' E 009°13'3 6.0
2019-Sep-15 05:00N 44°12' E 009°09'3 6.0
2019-Sep-15 04:30N 44°10' E 009°05'4 8.2
2019-Sep-15 04:00N 44°08' E 009°01'4 8.3
2019-Sep-15 03:30N 44°06' E 008°55'4 8.3
2019-Sep-15 03:00N 44°04' E 008°50'4 8.3
2019-Sep-15 02:30N 44°02' E 008°45'4 8.0
2019-Sep-15 02:00N 44°00' E 008°41'4 7.7
2019-Sep-15 01:30N 43°58' E 008°36'4 7.5
2019-Sep-15 01:00N 43°56' E 008°31'4 7.8
2019-Sep-15 00:30N 43°54' E 008°27'4 7.4
2019-Sep-15 00:00N 43°52' E 008°23'4 7.9
2019-Sep-14 23:30N 43°50' E 008°18'4 8.0
2019-Sep-14 23:00N 43°48' E 008°13'4 7.7
2019-Sep-14 22:30N 43°46' E 008°08'4 7.6
2019-Sep-14 22:00N 43°45' E 008°04'3 6.9
2019-Sep-14 21:30N 43°43' E 007°59'4 7.3
2019-Sep-14 21:00N 43°43' E 007°54'4 7.9
2019-Sep-14 20:30N 43°42' E 007°49'4 7.8
2019-Sep-14 20:00N 43°42' E 007°43'4 7.7
2019-Sep-14 19:30N 43°41' E 007°38'4 7.5
2019-Sep-14 19:00N 43°40' E 007°33'4 7.2
2019-Sep-14 18:30N 43°40' E 007°28'4 7.5
2019-Sep-14 18:00N 43°40' E 007°23'4 7.2
2019-Sep-14 17:30N 43°40' E 007°18'2 4.1
2019-Sep-14 17:00N 43°42' E 007°17'0 0.0
2019-Sep-14 16:30N 43°42' E 007°17'0 0.0
2019-Sep-14 15:57N 43°42' E 007°17'0 0.0
2019-Sep-14 15:30N 43°42' E 007°17'0 0.0
2019-Sep-14 15:00N 43°42' E 007°17'0 0.0
2019-Sep-14 14:30N 43°42' E 007°17'0 0.0
2019-Sep-14 14:00N 43°42' E 007°17'0 0.0
2019-Sep-14 13:27N 43°42' E 007°17'0 0.0
2019-Sep-14 13:00N 43°42' E 007°17'0 0.0
2019-Sep-14 12:30N 43°42' E 007°17'0 0.0
2019-Sep-14 12:00N 43°42' E 007°17'0 0.0
2019-Sep-14 11:30N 43°42' E 007°17'0 0.0
2019-Sep-14 11:00N 43°42' E 007°17'0 0.0
2019-Sep-14 10:30N 43°42' E 007°17'0 0.0
2019-Sep-14 10:00N 43°42' E 007°17'0 0.0
2019-Sep-14 09:30N 43°42' E 007°17'0 0.0
2019-Sep-14 09:00N 43°42' E 007°17'0 0.0
2019-Sep-14 08:30N 43°42' E 007°17'0 0.0
2019-Sep-14 08:00N 43°42' E 007°17'0 0.0
2019-Sep-14 07:30N 43°42' E 007°17'0 0.0
2019-Sep-14 07:00N 43°42' E 007°17'0 0.0
2019-Sep-14 06:30N 43°42' E 007°17'0 0.0
2019-Sep-14 06:00N 43°42' E 007°17'0 0.0
2019-Sep-14 05:30N 43°42' E 007°17'0 0.0
2019-Sep-14 05:00N 43°42' E 007°17'0 0.0
2019-Sep-14 04:30N 43°42' E 007°17'0 0.0
2019-Sep-14 04:00N 43°42' E 007°17'0 0.0
2019-Sep-14 03:30N 43°42' E 007°17'0 0.0
2019-Sep-14 03:00N 43°42' E 007°17'0 0.0
2019-Sep-14 02:30N 43°42' E 007°17'0 0.0
2019-Sep-14 02:00N 43°42' E 007°17'0 0.0
2019-Sep-14 01:30N 43°42' E 007°17'0 0.0
2019-Sep-14 01:00N 43°42' E 007°17'0 0.0
2019-Sep-14 00:30N 43°42' E 007°17'0 0.0
2019-Sep-14 00:00N 43°42' E 007°17'0 0.0
2019-Sep-13 23:30N 43°42' E 007°17'0 0.0
2019-Sep-13 23:00N 43°42' E 007°17'0 0.0
2019-Sep-13 22:30N 43°42' E 007°17'0 0.0
2019-Sep-13 22:00N 43°42' E 007°17'0 0.0
2019-Sep-13 21:30N 43°42' E 007°17'0 0.0
2019-Sep-13 21:00N 43°42' E 007°17'0 0.0
2019-Sep-13 20:30N 43°42' E 007°17'0 0.0
2019-Sep-13 20:00N 43°42' E 007°17'0 0.0
2019-Sep-13 19:30N 43°42' E 007°17'0 0.0
2019-Sep-13 19:00N 43°42' E 007°17'0 0.0
2019-Sep-13 18:30N 43°42' E 007°17'0 0.0
2019-Sep-13 18:00N 43°42' E 007°17'0 0.0
2019-Sep-13 17:30N 43°42' E 007°17'0 0.0
2019-Sep-13 17:00N 43°42' E 007°17'0 0.0
2019-Sep-13 16:30N 43°42' E 007°17'0 0.0
2019-Sep-13 16:00N 43°42' E 007°17'0 0.0
2019-Sep-13 15:30N 43°42' E 007°17'0 0.0
2019-Sep-13 15:00N 43°42' E 007°17'0 0.0
2019-Sep-13 14:30N 43°42' E 007°17'0 0.0
2019-Sep-13 14:00N 43°42' E 007°17'0 0.0
2019-Sep-13 13:30N 43°42' E 007°17'0 0.0
2019-Sep-13 13:00N 43°42' E 007°17'0 0.0
2019-Sep-13 12:30N 43°42' E 007°17'0 0.0
2019-Sep-13 12:00N 43°42' E 007°17'0 0.0
2019-Sep-13 11:30N 43°42' E 007°17'0 0.0
2019-Sep-13 11:00N 43°42' E 007°17'0 0.0
2019-Sep-13 10:30N 43°42' E 007°17'0 0.0
2019-Sep-13 10:00N 43°42' E 007°17'0 0.0
2019-Sep-13 09:30N 43°42' E 007°17'0 0.0
2019-Sep-13 09:00N 43°42' E 007°17'0 0.0
2019-Sep-13 08:30N 43°42' E 007°17'0 0.0
2019-Sep-13 08:00N 43°42' E 007°17'0 0.0
2019-Sep-13 07:30N 43°42' E 007°17'0 0.0
2019-Sep-13 07:00N 43°42' E 007°17'0 0.0
2019-Sep-13 06:30N 43°42' E 007°17'0 0.0
2019-Sep-13 06:00N 43°42' E 007°17'0 0.0
2019-Sep-13 05:30N 43°42' E 007°17'0 0.0
2019-Sep-13 05:00N 43°42' E 007°17'0 0.3
2019-Sep-13 04:30N 43°42' E 007°17'3 6.6
2019-Sep-13 04:00N 43°39' E 007°19'5 9.1
2019-Sep-13 03:30N 43°35' E 007°23'5 9.2
2019-Sep-13 03:00N 43°32' E 007°27'5 9.1
2019-Sep-13 02:30N 43°29' E 007°32'10 9.7
2019-Sep-13 01:30N 43°22' E 007°41'5 9.7
2019-Sep-13 01:00N 43°18' E 007°46'5 9.8
2019-Sep-13 00:30N 43°15' E 007°51'5 9.8
2019-Sep-13 00:00N 43°12' E 007°56'5 9.7
2019-Sep-12 23:30N 43°09' E 008°01'5 9.8
2019-Sep-12 23:00N 43°05' E 008°06'5 9.9
2019-Sep-12 22:30N 43°01' E 008°10'5 9.6
2019-Sep-12 22:00N 42°58' E 008°15'5 9.6
2019-Sep-12 21:30N 42°54' E 008°19'5 9.5
2019-Sep-12 21:00N 42°50' E 008°23'5 9.4
2019-Sep-12 20:30N 42°46' E 008°26'5 9.4
2019-Sep-12 20:00N 42°42' E 008°28'5 9.1
2019-Sep-12 19:30N 42°37' E 008°30'4 7.4
2019-Sep-12 19:00N 42°36' E 008°35'5 9.1
2019-Sep-12 18:30N 42°37' E 008°41'4 7.9
2019-Sep-12 18:00N 42°35' E 008°46'1 2.2
2019-Sep-12 17:30N 42°34' E 008°46'0 0.0
2019-Sep-12 16:59N 42°34' E 008°46'0 0.0
2019-Sep-12 16:29N 42°34' E 008°46'0 0.1
2019-Sep-12 15:59N 42°34' E 008°46'0 0.1
2019-Sep-12 15:29N 42°34' E 008°46'0 0.1
2019-Sep-12 14:59N 42°34' E 008°46'0 0.1
2019-Sep-12 14:29N 42°34' E 008°46'0 0.1
2019-Sep-12 13:59N 42°34' E 008°46'0 0.0
2019-Sep-12 13:29N 42°34' E 008°46'0 0.0
2019-Sep-12 12:59N 42°34' E 008°46'0 0.0
2019-Sep-12 12:29N 42°34' E 008°46'0 0.0
2019-Sep-12 11:59N 42°34' E 008°46'0 0.0
2019-Sep-12 11:29N 42°34' E 008°46'0 0.0
2019-Sep-12 10:59N 42°34' E 008°46'0 0.0
2019-Sep-12 10:26N 42°34' E 008°46'0 0.0
2019-Sep-12 09:56N 42°34' E 008°46'0 0.0
2019-Sep-12 09:24N 42°34' E 008°46'0 0.0
2019-Sep-12 08:55N 42°34' E 008°46'0 0.0
2019-Sep-12 08:28N 42°34' E 008°46'0 0.1
2019-Sep-12 07:58N 42°34' E 008°46'0 0.0
2019-Sep-12 07:28N 42°34' E 008°46'0 0.0
2019-Sep-12 06:52N 42°34' E 008°46'0 0.0
2019-Sep-12 06:25N 42°34' E 008°46'0 0.1
2019-Sep-12 06:00N 42°34' E 008°46'2 4.9
2019-Sep-12 05:30N 42°36' E 008°46'4 7.6
2019-Sep-12 05:00N 42°40' E 008°46'4 7.7
2019-Sep-12 04:30N 42°44' E 008°48'4 7.9
2019-Sep-12 04:00N 42°48' E 008°50'4 7.3
2019-Sep-12 03:30N 42°51' E 008°51'4 7.4
2019-Sep-12 03:00N 42°55' E 008°51'4 8.8
2019-Sep-12 02:30N 42°59' E 008°53'4 8.7
2019-Sep-12 02:00N 43°03' E 008°54'4 8.7
2019-Sep-12 01:30N 43°08' E 008°55'4 9.0
2019-Sep-12 01:00N 43°12' E 008°57'4 9.0
2019-Sep-12 00:30N 43°16' E 008°59'5 9.0
2019-Sep-12 00:00N 43°21' E 009°00'4 8.8
2019-Sep-11 23:30N 43°25' E 009°01'4 8.5
2019-Sep-11 23:00N 43°29' E 009°02'4 8.8
2019-Sep-11 22:30N 43°33' E 009°04'4 8.4
2019-Sep-11 22:00N 43°38' E 009°05'4 8.0
2019-Sep-11 21:30N 43°41' E 009°06'4 8.2
2019-Sep-11 21:00N 43°45' E 009°07'4 8.5
2019-Sep-11 20:30N 43°50' E 009°09'4 8.4
2019-Sep-11 20:00N 43°54' E 009°10'4 8.3
2019-Sep-11 19:30N 43°58' E 009°12'4 8.3
2019-Sep-11 19:00N 44°02' E 009°13'4 8.2
2019-Sep-11 18:30N 44°06' E 009°14'4 8.0
2019-Sep-11 18:00N 44°10' E 009°15'4 7.9
2019-Sep-11 17:30N 44°14' E 009°15'5 9.8
2019-Sep-11 17:00N 44°18' E 009°14'0 0.2
2019-Sep-11 16:29N 44°18' E 009°14'0 0.0
2019-Sep-11 15:59N 44°18' E 009°14'0 0.0
2019-Sep-11 15:29N 44°18' E 009°14'0 0.0
2019-Sep-11 14:59N 44°18' E 009°14'0 0.0
2019-Sep-11 14:26N 44°18' E 009°14'0 0.0
2019-Sep-11 13:59N 44°18' E 009°14'0 0.1
2019-Sep-11 13:23N 44°18' E 009°14'0 0.0
2019-Sep-11 12:59N 44°18' E 009°14'0 0.0
2019-Sep-11 12:26N 44°18' E 009°14'0 0.0
2019-Sep-11 11:59N 44°18' E 009°14'0 0.0
2019-Sep-11 11:29N 44°18' E 009°14'0 0.0
2019-Sep-11 10:56N 44°18' E 009°14'0 0.0
2019-Sep-11 10:29N 44°18' E 009°14'0 0.0
2019-Sep-11 09:59N 44°18' E 009°14'0 0.0
2019-Sep-11 09:29N 44°18' E 009°14'0 0.0
2019-Sep-11 08:59N 44°18' E 009°14'  

Dump ship's entire track history